¿Dónde queda Quinta da Boavista en Portugal?

 

Quinta da Boavista está situado en la región Santarem en Portugal!

Buscar el nombre de una ciudad:

Quinua Pampa, Quinteros, Quinta do Monte Leal, Quingoma Camilando, Quinchas

Aquí usted encontrará la ubicación de Quinta da Boavista en un mapa.
Para ver cómo se ve en la actualidad, a continuación hay algunas fotos de la región con cámaras web en línea.
También puede encontrar la distancia a las principales ciudades de la región y para las ciudades en el resto de Portugal.

Todos los lugares del mundo llamados .


¿Dónde queda Quinta da Boavista en el mapa?




Webcams cerca de Quinta da Boavista

Vasco Carão › South: Garrocheira, Benavente − Airport.


Vasco Carão › South: Garrocheira, Benavente − Airport - El día
Actuales
Vasco Carão › South: Garrocheira, Benavente − Airport - Actuales

Benavente › North-East: AIrport, METAR: BENAV 180005Z 36004KT 17/14 Q1015.


Benavente › North-East: AIrport, METAR: BENAV 180005Z 36004KT 17/14 Q1015 - El día
Actuales
Benavente › North-East: AIrport, METAR: BENAV 180005Z 36004KT 17/14 Q1015 - Actuales

Abrantes › North-West: › North-West: Zona Alta (Torre).


Abrantes › North-West: › North-West: Zona Alta (Torre) - El día
Actuales
Abrantes › North-West: › North-West: Zona Alta (Torre) - Actuales

Webcams provided by webcams.travel


Distancias

¿Dónde queda Quinta da Boavista en relación con otros lugares?

Top 10 ciudades en Santarem y la distancia de Quinta da Boavista.

Ciudad#Poblaciónkmmillas
Santarém12938585
Entroncamento2198872415
Tomar3191684025
Torres Novas4145262314
Samora Correia5141544528
Abrantes6136464226
Ourém7127293924
Rio Maior8120642717
Fátima9117983723
Almeirim1011556106

Top 10 ciudades en Portugal y la distancia de Quinta da Boavista.

Ciudad # Poblaciónkmmillas
Lisbon15177987748
Porto2249630208129
Amadora31788567949
Braga4121393253157
Setúbal51171098754
Coimbra610658010364
Queluz71033988050
Funchal8980411049652
Vila Nova de Gaia970810206128
Loures10662306943



Alertas y advertencias en Portugal

Asesoramiento e información sobre viajes y seguridad en Portugal

Con una advertencia de viaje, los turistas pueden ser informados de los riesgos de seguridad durante las vacaciones o de viaje en un país extranjero.Estar informado acerca de los riesgos de secuestro, robo a mano armada, atentados, catástrofes naturales o guerras. No saben qué áreas son seguras en Portugal. Estar alerta, o evitar ciertas áreas cuando está de vacaciones en Portugal.

Alertas y advertencias



Información de viajes Portugal

Información sobre documentos de viaje, solicitudes de visados y el costo de una visa.
Información de Contacto embajadas en Portugal.
Los diferentes tipos de seguro de viaje.

Información de viajes

Info

Estadística y Geografía

Portugal se compone de 15299 ciudades en 20 regiones.

La región Santarem tiene 1174 ciudades.

¿Dónde queda Quinta da Boavista en Portugal?